Upstream stations:
Downstream station:
SHEF ID: AMAT2 Canadian Rv nr Amarillo, TX
STATION TYPE:
Regulating: Stage = 13.00, Flow = 87096
PRECIP STAGE RIV-FLOW WTR-TEMP CONDUCT BAT-LOAD
in ft cfs F umho/cm volt
Ccp-Rev Ccp-Rev Ccp-Rev Ccp-Rev Ccp-Rev Ccp-Rev
(US/Central)
03/20 00:00 ---- 1.39 67 51.35 2 12.01
03/20 01:00 ---- 1.39 67 50.43 2 11.93
03/20 02:00 ---- 1.40 69 49.62 2 11.93
03/20 03:00 ---- 1.40 69 48.69 2 11.93
03/20 04:00 ---- 1.40 69 47.79 2 11.93
03/20 05:00 ---- 1.40 69 46.98 2 11.93
03/20 06:00 ---- 1.39 67 46.24 2 11.93
03/20 07:00 ---- 1.40 69 45.64 2 11.86
03/20 08:00 ---- 1.39 67 44.96 2 11.93
03/20 09:00 ---- 1.39 67 44.89 2 12.01
03/20 10:00 ---- 1.42 72 46.17 2 12.09
03/20 11:00 ---- 1.37 64 48.69 2 12.17
03/20 12:00 ---- 1.32 56 51.84 2 12.17
03/20 13:00 ---- 1.33 58 55.27 2 12.25
03/20 14:00 ---- 1.32 56 58.64 2 12.25
03/20 15:00 ---- 1.38 65 61.41 2 12.25
03/20 16:00 ---- 1.33 58 62.69 2 12.17
03/20 17:00 ---- 1.35 61 63.07 2 12.17
03/20 18:00 ---- 1.36 62 62.04 2 12.09
03/20 19:00 ---- 1.34 59 59.95 2 12.09
03/20 20:00 ---- 1.33 58 57.72 2 12.09
03/20 21:00 ---- 1.32 56 55.62 3 12.09
03/20 22:00 ---- 1.33 58 53.78 3 12.09
03/20 23:00 ---- 1.31 55 52.30 3 12.01